Time;durP1;ratioP1;P1;durP2;ratioP2;P2;SDS_P1;SDS_P2;PMS_P1;PMS_P2;Temp;Humidity;BMP_temperature;BMP_pressure;BME280_temperature;BME280_humidity;BME280_pressure;Samples;Min_cycle;Max_cycle;Signal;HPM_P1;HPM_P2
2023/05/10 05:26:19;;;;;;;;;;;;;;;14.73;78.85;97497.72;4831102;27;20027;-62
2023/05/10 05:28:44;;;;;;;;;;;;;;;14.74;79.31;97502.00;4853147;29;20342;-62
2023/05/10 05:31:09;;;;;;;;;;;;;;;14.78;78.42;97505.16;4853335;29;19924;-61
2023/05/10 05:33:35;;;;;;;;;;;;;;;14.80;77.57;97506.69;4845688;29;19924;-61
2023/05/10 05:36:00;;;;;;;;;;;;;;;14.88;77.94;97504.13;4845762;29;19948;-62
2023/05/10 05:38:26;;;;;;;;;;;;;;;15.02;76.97;97499.31;4825745;29;19928;-62
2023/05/10 05:40:51;;;;;;;;;;;;;;;15.00;76.65;97503.91;4842428;29;19916;-61
2023/05/10 05:43:16;;;;;;;;;;;;;;;15.04;77.19;97505.28;4842736;29;19947;-62
2023/05/10 05:45:41;;;;;;;;;;;;;;;15.04;76.27;97511.41;4841765;29;19921;-63
2023/05/10 05:48:06;;;;;;;;;;;;;;;15.04;75.86;97513.22;4842384;29;20367;-62
2023/05/10 05:50:32;;;;;;;;;;;;;;;14.95;75.99;97510.47;4842262;29;20553;-63
2023/05/10 05:52:57;;;;;;;;;;;;;;;14.98;75.96;97513.81;4841783;29;20379;-62
2023/05/10 05:55:23;;;;;;;;;;;;;;;15.03;76.56;97522.09;4841351;29;19921;-62
2023/05/10 05:57:49;;;;;;;;;;;;;;;14.99;76.39;97523.38;4841845;29;19928;-62
2023/05/10 06:00:14;;;;;;;;;;;;;;;15.04;75.96;97524.59;4829368;29;19932;-62
2023/05/10 06:02:39;;;;;;;;;;;;;;;15.00;76.64;97527.66;4833332;29;19928;-61
2023/05/10 06:05:05;;;;;;;;;;;;;;;15.02;76.61;97531.00;4834135;29;20447;-61
2023/05/10 06:07:30;;;;;;;;;;;;;;;15.16;76.71;97535.75;4834758;29;19920;-62
2023/05/10 06:09:55;;;;;;;;;;;;;;;15.22;76.63;97537.81;4840952;29;19924;-62
2023/05/10 06:12:20;;;;;;;;;;;;;;;15.20;76.45;97539.75;4833779;29;19920;-62
2023/05/10 06:14:46;;;;;;;;;;;;;;;15.27;75.51;97540.81;4840581;29;19943;-63
2023/05/10 06:17:11;;;;;;;;;;;;;;;15.19;74.37;97549.50;4835804;29;19927;-63
2023/05/10 06:19:36;;;;;;;;;;;;;;;15.24;75.54;97548.22;4840444;29;20302;-62
2023/05/10 06:22:01;;;;;;;;;;;;;;;15.04;74.96;97544.91;4828684;29;19988;-62
2023/05/10 06:24:27;;;;;;;;;;;;;;;15.01;76.17;97558.41;4835997;29;20379;-63
2023/05/10 06:26:52;;;;;;;;;;;;;;;15.00;76.36;97554.06;4833740;29;20302;-62
2023/05/10 06:29:17;;;;;;;;;;;;;;;15.17;75.56;97561.19;4835302;29;19968;-62
2023/05/10 06:31:42;;;;;;;;;;;;;;;15.19;73.90;97553.97;4847128;29;20001;-63
2023/05/10 06:34:08;;;;;;;;;;;;;;;15.33;73.94;97561.34;4835326;29;19991;-64
2023/05/10 06:36:33;;;;;;;;;;;;;;;15.26;74.42;97560.31;4824331;29;19993;-63
2023/05/10 06:38:58;;;;;;;;;;;;;;;15.35;74.39;97564.69;4824233;29;19970;-63
2023/05/10 06:41:24;;;;;;;;;;;;;;;15.52;73.16;97564.81;4824037;29;20294;-63
2023/05/10 06:43:49;;;;;;;;;;;;;;;15.54;73.09;97568.16;4824061;29;20465;-64
2023/05/10 06:46:14;;;;;;;;;;;;;;;15.58;72.21;97564.22;4824087;29;19928;-65
2023/05/10 06:48:39;;;;;;;;;;;;;;;15.74;72.52;97563.56;4824005;29;19916;-65
2023/05/10 06:51:05;;;;;;;;;;;;;;;15.87;70.52;97562.19;4823949;29;20356;-65
2023/05/10 06:53:30;;;;;;;;;;;;;;;15.97;70.85;97563.91;4792755;29;20375;-65
2023/05/10 06:55:55;;;;;;;;;;;;;;;16.03;70.22;97563.28;4823809;29;19920;-65
2023/05/10 06:58:20;;;;;;;;;;;;;;;16.17;70.77;97565.34;4823995;29;19917;-65
2023/05/10 07:00:47;;;;;;;;;;;;;;;16.19;68.85;97570.50;4823750;29;19917;-64
2023/05/10 07:03:12;;;;;;;;;;;;;;;16.00;68.48;97566.22;4823900;29;20029;-64
2023/05/10 07:05:37;;;;;;;;;;;;;;;16.13;68.79;97574.59;4823772;29;20028;-62
2023/05/10 07:08:02;;;;;;;;;;;;;;;15.82;68.75;97576.84;4823848;29;20025;-64
2023/05/10 07:10:28;;;;;;;;;;;;;;;15.86;69.32;97580.84;4823823;29;19959;-61
2023/05/10 07:12:53;;;;;;;;;;;;;;;15.77;69.50;97574.66;4823586;29;20309;-64
2023/05/10 07:15:18;;;;;;;;;;;;;;;15.76;70.21;97578.31;4807306;29;19917;-62
2023/05/10 07:17:43;;;;;;;;;;;;;;;15.53;70.06;97585.00;4807284;29;19924;-62
2023/05/10 07:20:09;;;;;;;;;;;;;;;15.58;69.43;97585.38;4823485;29;20347;-61
2023/05/10 07:22:34;;;;;;;;;;;;;;;15.57;70.31;97583.72;4823563;29;19917;-63
2023/05/10 07:24:59;;;;;;;;;;;;;;;15.74;69.69;97585.53;4823386;29;20394;-63
2023/05/10 07:27:24;;;;;;;;;;;;;;;16.08;68.80;97590.09;4807294;29;20383;-63
2023/05/10 07:29:50;;;;;;;;;;;;;;;15.89;68.40;97589.28;4823522;29;20519;-62
2023/05/10 07:32:15;;;;;;;;;;;;;;;16.04;69.20;97592.22;4823409;29;19921;-64
2023/05/10 07:34:41;;;;;;;;;;;;;;;16.11;68.62;97587.97;4823606;29;19939;-63
2023/05/10 07:37:07;;;;;;;;;;;;;;;16.24;68.92;97592.88;4807016;29;19920;-64
2023/05/10 07:39:32;;;;;;;;;;;;;;;15.98;68.76;97594.66;4806870;29;20336;-63
2023/05/10 07:41:57;;;;;;;;;;;;;;;15.86;69.99;97591.41;4823279;29;19924;-64
2023/05/10 07:44:22;;;;;;;;;;;;;;;15.93;69.60;97599.56;4823278;29;19917;-63
2023/05/10 07:46:48;;;;;;;;;;;;;;;15.85;69.30;97595.03;4823262;29;19921;-64
2023/05/10 07:49:13;;;;;;;;;;;;;;;16.17;68.99;97598.91;4823350;29;19924;-63
2023/05/10 07:51:38;;;;;;;;;;;;;;;16.19;68.67;97605.72;4823014;29;19964;-64
2023/05/10 07:54:04;;;;;;;;;;;;;;;16.35;69.03;97605.84;4823201;29;19956;-65
2023/05/10 07:56:29;;;;;;;;;;;;;;;16.33;68.22;97602.50;4823295;29;20396;-65
2023/05/10 07:58:55;;;;;;;;;;;;;;;16.42;67.03;97610.50;4806986;29;20019;-64
2023/05/10 08:01:20;;;;;;;;;;;;;;;16.33;66.97;97606.97;4822977;29;19917;-64
2023/05/10 08:03:45;;;;;;;;;;;;;;;16.36;66.20;97611.94;4823107;29;19917;-64
2023/05/10 08:06:11;;;;;;;;;;;;;;;16.35;66.16;97613.78;4806685;29;19921;-64
2023/05/10 08:08:36;;;;;;;;;;;;;;;16.26;66.22;97612.03;4806978;29;19947;-64
2023/05/10 08:11:01;;;;;;;;;;;;;;;16.18;67.31;97606.72;4822829;29;20371;-67
2023/05/10 08:13:26;;;;;;;;;;;;;;;16.47;66.10;97613.50;4823113;29;20354;-65
2023/05/10 08:15:52;;;;;;;;;;;;;;;16.83;64.95;97607.09;4822922;29;20367;-65
2023/05/10 08:18:18;;;;;;;;;;;;;;;17.18;64.38;97613.19;4806636;29;20404;-64
2023/05/10 08:20:43;;;;;;;;;;;;;;;17.36;62.95;97610.41;4806842;29;19964;-64
2023/05/10 08:23:08;;;;;;;;;;;;;;;17.33;62.45;97616.03;4822921;29;20376;-63
2023/05/10 08:25:34;;;;;;;;;;;;;;;17.42;63.17;97619.56;4822762;29;20375;-64
2023/05/10 08:27:59;;;;;;;;;;;;;;;17.82;62.05;97617.97;4822935;29;19928;-63
2023/05/10 08:30:24;;;;;;;;;;;;;;;17.81;61.71;97618.97;4822884;29;19917;-63
2023/05/10 08:32:49;;;;;;;;;;;;;;;17.95;61.23;97620.97;4825828;29;19921;-62
2023/05/10 08:35:15;;;;;;;;;;;;;;;17.99;62.13;97615.16;4826139;29;19933;-63
2023/05/10 08:37:40;;;;;;;;;;;;;;;17.76;63.04;97617.66;4809996;29;20295;-64
2023/05/10 08:40:06;;;;;;;;;;;;;;;17.40;63.10;97622.34;4826020;29;20395;-64
2023/05/10 08:42:31;;;;;;;;;;;;;;;17.30;62.66;97622.47;4825770;29;20402;-65
2023/05/10 08:44:56;;;;;;;;;;;;;;;16.99;64.27;97624.03;4809596;29;20372;-65
2023/05/10 08:47:22;;;;;;;;;;;;;;;16.63;66.57;97632.13;4809843;29;19916;-65
2023/05/10 08:49:48;;;;;;;;;;;;;;;16.42;67.90;97626.38;4809662;29;19923;-65
2023/05/10 08:52:13;;;;;;;;;;;;;;;16.21;69.87;97638.16;4809338;29;19917;-64
2023/05/10 08:54:39;;;;;;;;;;;;;;;16.25;72.51;97642.16;4809391;29;19928;-67
2023/05/10 08:57:04;;;;;;;;;;;;;;;16.16;71.14;97643.06;4809672;29;19913;-62
2023/05/10 08:59:29;;;;;;;;;;;;;;;16.12;72.06;97644.34;4825659;29;20421;-63
2023/05/10 09:01:55;;;;;;;;;;;;;;;16.25;73.22;97642.16;4825621;29;20371;-63
2023/05/10 09:04:20;;;;;;;;;;;;;;;16.44;71.50;97635.81;4809595;29;19924;-63
2023/05/10 09:06:46;;;;;;;;;;;;;;;16.53;71.22;97639.34;4809421;29;19921;-64
2023/05/10 09:09:11;;;;;;;;;;;;;;;16.56;70.15;97639.03;4809430;29;19917;-65
2023/05/10 09:11:36;;;;;;;;;;;;;;;16.98;68.91;97633.00;4809182;29;20014;-64
2023/05/10 09:14:02;;;;;;;;;;;;;;;17.36;66.65;97630.81;4825449;29;19924;-66
2023/05/10 09:16:27;;;;;;;;;;;;;;;17.56;66.69;97634.81;4809562;29;19917;-66
2023/05/10 09:18:52;;;;;;;;;;;;;;;17.64;68.34;97634.81;4809434;29;19999;-65
2023/05/10 09:21:19;;;;;;;;;;;;;;;17.89;67.30;97648.13;4825245;29;20015;-64
2023/05/10 09:23:45;;;;;;;;;;;;;;;18.02;64.70;97635.22;4809203;29;19931;-63
2023/05/10 09:26:10;;;;;;;;;;;;;;;18.17;63.70;97638.88;4809214;29;19925;-63
2023/05/10 09:28:52;;;;;;;;;;;;;;;18.26;62.89;97635.19;4825285;29;19924;-65
2023/05/10 09:31:17;;;;;;;;;;;;;;;18.11;63.90;97642.19;4808910;29;20387;-62
2023/05/10 09:33:48;;;;;;;;;;;;;;;17.72;62.48;97642.81;4825156;29;19924;-64
2023/05/10 09:36:13;;;;;;;;;;;;;;;17.46;63.32;97642.09;4808867;29;20323;-65
2023/05/10 09:38:45;;;;;;;;;;;;;;;17.40;63.61;97653.34;4825395;29;19945;-63
2023/05/10 09:41:18;;;;;;;;;;;;;;;17.75;63.42;97650.41;4808751;29;20340;-62
2023/05/10 09:43:43;;;;;;;;;;;;;;;18.16;61.10;97647.81;4809090;29;20291;-64
2023/05/10 09:46:08;;;;;;;;;;;;;;;18.67;59.81;97637.78;4825329;29;20402;-62
2023/05/10 09:48:33;;;;;;;;;;;;;;;18.66;58.75;97636.13;4825064;29;20367;-63
2023/05/10 09:50:59;;;;;;;;;;;;;;;18.92;56.47;97635.09;4824815;29;20458;-64
2023/05/10 09:53:24;;;;;;;;;;;;;;;18.40;58.12;97635.53;4808656;29;20376;-64
2023/05/10 09:55:50;;;;;;;;;;;;;;;18.31;58.91;97631.25;4808540;29;19920;-64
2023/05/10 09:58:15;;;;;;;;;;;;;;;18.26;59.33;97637.84;4824678;29;19917;-61
2023/05/10 10:00:41;;;;;;;;;;;;;;;18.59;59.01;97643.13;4824631;29;19917;-63
2023/05/10 10:03:11;;;;;;;;;;;;;;;18.65;57.31;97631.84;4824811;29;19924;-63
2023/05/10 10:05:36;;;;;;;;;;;;;;;18.74;57.37;97632.66;4808365;29;19925;-64
2023/05/10 10:08:03;;;;;;;;;;;;;;;18.85;56.38;97634.94;4808383;29;19917;-64
2023/05/10 10:10:28;;;;;;;;;;;;;;;19.13;55.46;97626.53;4824694;29;20334;-64
2023/05/10 10:12:54;;;;;;;;;;;;;;;19.26;54.22;97624.13;4808117;29;19924;-64
2023/05/10 10:15:20;;;;;;;;;;;;;;;19.47;53.16;97626.19;4824577;29;20399;-63
2023/05/10 10:17:45;;;;;;;;;;;;;;;19.73;53.66;97623.22;4808370;29;19917;-63
2023/05/10 10:20:10;;;;;;;;;;;;;;;20.72;49.30;97623.22;4808161;29;19970;-63
2023/05/10 10:22:36;;;;;;;;;;;;;;;20.87;48.20;97621.38;4824379;29;19921;-64
2023/05/10 10:25:01;;;;;;;;;;;;;;;21.20;48.50;97615.66;4824325;29;20213;-64
2023/05/10 10:27:28;;;;;;;;;;;;;;;20.94;48.34;97624.94;4808179;29;19924;-64
2023/05/10 10:30:05;;;;;;;;;;;;;;;20.72;47.67;97628.56;4805971;29;19924;-64
2023/05/10 10:32:37;;;;;;;;;;;;;;;20.45;48.17;97628.13;4822018;29;19924;-64
2023/05/10 10:35:03;;;;;;;;;;;;;;;20.25;49.07;97626.97;4806865;29;19916;-66
2023/05/10 10:37:43;;;;;;;;;;;;;;;19.95;47.72;97632.22;4823381;29;19916;-66
2023/05/10 10:40:27;;;;;;;;;;;;;;;19.75;48.59;97633.69;4806983;29;19917;-64
2023/05/10 10:42:53;;;;;;;;;;;;;;;19.56;50.02;97633.13;4822628;29;20003;-65
2023/05/10 10:45:18;;;;;;;;;;;;;;;19.55;50.41;97642.13;4823227;29;19921;-64
2023/05/10 10:47:44;;;;;;;;;;;;;;;19.50;51.21;97643.63;4823368;29;19946;-64
2023/05/10 10:50:12;;;;;;;;;;;;;;;19.36;52.61;97631.91;4806913;29;19923;-64
2023/05/10 10:52:38;;;;;;;;;;;;;;;19.44;52.16;97640.69;4807029;29;19920;-65
2023/05/10 10:55:10;;;;;;;;;;;;;;;19.38;51.49;97638.72;4830175;29;19916;-64
2023/05/10 10:57:41;;;;;;;;;;;;;;;19.50;51.44;97633.00;4837651;29;19924;-64
2023/05/10 11:00:25;;;;;;;;;;;;;;;19.57;51.60;97632.09;4823704;29;20012;-66
2023/05/10 11:02:51;;;;;;;;;;;;;;;19.92;50.97;97624.56;4806804;29;19928;-67
2023/05/10 11:05:23;;;;;;;;;;;;;;;19.99;49.98;97630.84;4806729;29;19921;-65
2023/05/10 11:07:54;;;;;;;;;;;;;;;20.68;49.29;97632.56;4806291;29;19990;-66
2023/05/10 11:10:20;;;;;;;;;;;;;;;20.74;48.12;97630.00;4823408;29;19917;-66
2023/05/10 11:13:01;;;;;;;;;;;;;;;20.35;47.90;97622.22;4823422;29;19924;-66
2023/05/10 11:15:33;;;;;;;;;;;;;;;19.79;49.47;97627.03;4823281;29;19924;-65
2023/05/10 11:17:58;;;;;;;;;;;;;;;19.48;50.60;97627.84;4823165;29;19960;-66
2023/05/10 11:20:28;;;;;;;;;;;;;;;19.29;51.51;97622.97;4823055;29;19956;-65
2023/05/10 11:22:54;;;;;;;;;;;;;;;18.88;52.90;97623.97;4820798;29;19916;-65
2023/05/10 11:25:19;;;;;;;;;;;;;;;18.95;53.51;97632.09;4841484;29;20295;-66
2023/05/10 11:27:44;;;;;;;;;;;;;;;19.09;53.67;97630.53;4841632;29;20007;-66
2023/05/10 11:30:11;;;;;;;;;;;;;;;19.02;54.25;97630.41;4824440;29;19929;-64
2023/05/10 11:32:37;;;;;;;;;;;;;;;18.78;54.84;97633.16;4824653;29;19928;-64
2023/05/10 11:35:09;;;;;;;;;;;;;;;18.62;56.87;97634.81;4812237;29;19917;-65
2023/05/10 11:37:34;;;;;;;;;;;;;;;18.44;57.91;97635.03;4807208;29;20304;-65
2023/05/10 11:39:59;;;;;;;;;;;;;;;18.46;57.49;97642.81;4838338;29;19930;-65
2023/05/10 11:42:25;;;;;;;;;;;;;;;18.31;57.86;97648.00;4825649;29;19924;-66
2023/05/10 11:44:50;;;;;;;;;;;;;;;18.45;56.99;97646.47;4822165;29;19920;-65
2023/05/10 11:47:15;;;;;;;;;;;;;;;18.60;56.27;97639.47;4836676;29;19920;-64
2023/05/10 11:49:43;;;;;;;;;;;;;;;18.44;55.96;97652.75;4840827;29;19965;-64
2023/05/10 11:52:08;;;;;;;;;;;;;;;18.46;56.74;97650.78;4824333;29;19981;-64
2023/05/10 11:54:36;;;;;;;;;;;;;;;18.43;56.83;97648.47;4838884;29;20000;-65
2023/05/10 11:57:01;;;;;;;;;;;;;;;18.43;56.73;97653.78;4839549;29;20033;-64
2023/05/10 11:59:26;;;;;;;;;;;;;;;18.56;56.21;97651.44;4831154;29;20431;-64
2023/05/10 12:01:52;;;;;;;;;;;;;;;18.48;54.79;97660.25;4840305;29;19925;-64
2023/05/10 12:04:17;;;;;;;;;;;;;;;18.52;54.22;97655.44;4826715;29;19925;-64
2023/05/10 12:06:42;;;;;;;;;;;;;;;18.61;53.92;97659.72;4842485;29;19929;-64
2023/05/10 12:09:08;;;;;;;;;;;;;;;18.79;51.51;97650.72;4847680;29;19920;-64
2023/05/10 12:11:35;;;;;;;;;;;;;;;19.03;51.30;97652.47;4844311;29;20432;-63
2023/05/10 12:14:03;;;;;;;;;;;;;;;19.13;50.36;97648.66;4826963;29;19925;-64
2023/05/10 12:16:29;;;;;;;;;;;;;;;19.37;50.26;97645.03;4827603;29;20344;-63
2023/05/10 12:18:55;;;;;;;;;;;;;;;19.58;50.16;97646.22;4827845;29;19917;-63
2023/05/10 12:21:21;;;;;;;;;;;;;;;19.64;49.58;97645.56;4827537;29;20306;-63
2023/05/10 12:23:46;;;;;;;;;;;;;;;19.62;49.15;97647.56;4844424;29;20379;-63
2023/05/10 12:26:12;;;;;;;;;;;;;;;19.56;48.32;97649.06;4844006;29;19924;-62
2023/05/10 12:28:37;;;;;;;;;;;;;;;19.43;49.41;97646.97;4844101;29;20007;-62
2023/05/10 12:31:02;;;;;;;;;;;;;;;19.22;51.64;97649.41;4843888;29;20364;-64
2023/05/10 12:33:27;;;;;;;;;;;;;;;19.18;51.21;97656.91;4812389;29;20306;-64
2023/05/10 12:35:53;;;;;;;;;;;;;;;19.43;50.49;97648.81;4827604;29;19950;-64
2023/05/10 12:38:24;;;;;;;;;;;;;;;19.48;51.52;97656.25;4844218;29;19920;-65
2023/05/10 12:40:50;;;;;;;;;;;;;;;19.42;51.13;97655.97;4843743;29;20447;-64
2023/05/10 12:43:15;;;;;;;;;;;;;;;19.39;50.74;97653.66;4843928;29;19916;-64
2023/05/10 12:45:40;;;;;;;;;;;;;;;19.42;51.61;97650.66;4827799;29;19981;-64
2023/05/10 12:48:05;;;;;;;;;;;;;;;19.13;52.81;97659.28;4844876;29;19924;-64
2023/05/10 12:50:30;;;;;;;;;;;;;;;18.99;53.31;97657.31;4844336;29;19946;-64
2023/05/10 12:52:56;;;;;;;;;;;;;;;18.92;54.02;97659.00;4844165;29;19939;-64
2023/05/10 12:55:21;;;;;;;;;;;;;;;19.09;53.37;97647.31;4844138;29;19916;-64
2023/05/10 12:57:46;;;;;;;;;;;;;;;19.03;54.11;97647.16;4844256;29;20427;-64
2023/05/10 13:00:12;;;;;;;;;;;;;;;19.23;53.12;97647.59;4844261;29;20386;-64
2023/05/10 13:02:37;;;;;;;;;;;;;;;19.24;53.43;97641.28;4827465;29;20451;-64
2023/05/10 13:05:02;;;;;;;;;;;;;;;19.43;52.69;97644.31;4827483;29;19916;-64
2023/05/10 13:07:27;;;;;;;;;;;;;;;19.55;52.47;97646.59;4844071;29;20015;-65
2023/05/10 13:09:53;;;;;;;;;;;;;;;19.56;52.96;97651.72;4843989;29;19960;-66
2023/05/10 13:12:18;;;;;;;;;;;;;;;19.76;51.89;97643.34;4843852;29;19965;-65
2023/05/10 13:14:43;;;;;;;;;;;;;;;19.90;51.85;97646.06;4843887;29;19916;-65
2023/05/10 13:17:08;;;;;;;;;;;;;;;20.08;50.61;97642.25;4843427;29;19923;-64
2023/05/10 13:19:34;;;;;;;;;;;;;;;20.09;50.33;97647.38;4843743;29;19923;-64
2023/05/10 13:21:59;;;;;;;;;;;;;;;20.18;50.05;97648.16;4843689;29;20007;-64
2023/05/10 13:24:24;;;;;;;;;;;;;;;20.09;49.80;97649.22;4843602;29;19977;-64
2023/05/10 13:26:49;;;;;;;;;;;;;;;20.11;49.41;97653.38;4843739;29;19920;-64
2023/05/10 13:29:17;;;;;;;;;;;;;;;19.88;50.45;97648.06;4843759;29;19999;-64
2023/05/10 13:31:43;;;;;;;;;;;;;;;20.04;49.99;97641.78;4843388;29;19921;-65
2023/05/10 13:34:08;;;;;;;;;;;;;;;19.90;50.67;97651.38;4843552;29;19923;-65
2023/05/10 13:36:33;;;;;;;;;;;;;;;19.85;49.71;97643.09;4843602;29;19917;-65
2023/05/10 13:38:58;;;;;;;;;;;;;;;19.85;50.22;97642.25;4843500;29;19988;-63
2023/05/10 13:41:23;;;;;;;;;;;;;;;19.90;48.73;97651.38;4843287;29;19969;-62
2023/05/10 13:43:49;;;;;;;;;;;;;;;19.97;49.27;97643.50;4843474;29;19916;-64
2023/05/10 13:46:14;;;;;;;;;;;;;;;20.02;48.96;97649.13;4843311;29;19921;-64
2023/05/10 13:48:39;;;;;;;;;;;;;;;20.07;49.61;97643.28;4826932;29;19916;-64
2023/05/10 13:51:04;;;;;;;;;;;;;;;20.13;48.60;97643.38;4843210;29;19928;-64
2023/05/10 13:53:30;;;;;;;;;;;;;;;20.30;48.70;97644.06;4843197;29;19921;-65
2023/05/10 13:55:55;;;;;;;;;;;;;;;20.26;47.71;97639.28;4843299;29;19944;-64
2023/05/10 13:58:20;;;;;;;;;;;;;;;20.05;47.92;97639.94;4843259;29;20287;-64
2023/05/10 14:00:46;;;;;;;;;;;;;;;20.05;47.78;97642.63;4842886;29;19963;-62
2023/05/10 14:03:11;;;;;;;;;;;;;;;19.93;48.29;97642.22;4843129;29;20001;-64
2023/05/10 14:05:36;;;;;;;;;;;;;;;19.83;48.31;97639.78;4843001;29;19971;-64
2023/05/10 14:08:01;;;;;;;;;;;;;;;19.77;49.38;97645.81;4843049;29;19916;-63
2023/05/10 14:10:27;;;;;;;;;;;;;;;19.83;49.88;97644.28;4826401;29;19924;-62
2023/05/10 14:12:52;;;;;;;;;;;;;;;19.82;50.91;97647.94;4842773;29;19928;-62
2023/05/10 14:15:17;;;;;;;;;;;;;;;19.56;50.45;97643.75;4842780;29;20401;-62
2023/05/10 14:17:43;;;;;;;;;;;;;;;19.62;50.76;97640.41;4842829;29;20374;-64
2023/05/10 14:20:08;;;;;;;;;;;;;;;19.85;50.55;97642.25;4842815;29;19916;-64
2023/05/10 14:22:33;;;;;;;;;;;;;;;19.83;50.65;97644.28;4842474;29;19916;-64
2023/05/10 14:24:59;;;;;;;;;;;;;;;19.83;50.29;97647.78;4826291;29;19921;-65
2023/05/10 14:27:24;;;;;;;;;;;;;;;19.96;50.77;97644.53;4842647;29;19984;-64
2023/05/10 14:29:49;;;;;;;;;;;;;;;19.90;50.38;97643.41;4841841;29;19916;-65
2023/05/10 14:32:14;;;;;;;;;;;;;;;19.77;50.54;97650.31;4826109;29;20011;-64
2023/05/10 14:34:40;;;;;;;;;;;;;;;19.45;51.17;97646.81;4842448;29;20011;-64
2023/05/10 14:37:05;;;;;;;;;;;;;;;19.27;52.14;97643.56;4842487;29;20008;-64
2023/05/10 14:39:31;;;;;;;;;;;;;;;19.21;52.17;97648.59;4842436;29;19960;-64
2023/05/10 14:41:56;;;;;;;;;;;;;;;19.19;52.95;97645.28;4842191;29;20000;-64
2023/05/10 14:44:21;;;;;;;;;;;;;;;19.66;51.53;97643.56;4825855;29;20011;-64
2023/05/10 14:46:48;;;;;;;;;;;;;;;19.84;51.53;97643.28;4842208;29;20019;-63
2023/05/10 14:49:13;;;;;;;;;;;;;;;19.95;50.63;97640.19;4835695;29;19917;-63
2023/05/10 14:51:38;;;;;;;;;;;;;;;20.70;49.23;97646.53;4833129;29;19966;-64
2023/05/10 14:54:03;;;;;;;;;;;;;;;20.05;48.14;97648.75;4823157;29;19916;-63
2023/05/10 14:56:29;;;;;;;;;;;;;;;19.76;50.14;97649.50;4823575;29;20431;-64
2023/05/10 14:58:54;;;;;;;;;;;;;;;19.59;51.18;97659.38;4823331;29;19917;-63
2023/05/10 15:01:19;;;;;;;;;;;;;;;19.71;50.99;97669.63;4830738;29;19923;-63
2023/05/10 15:03:44;;;;;;;;;;;;;;;19.34;52.05;97671.13;4841631;29;19920;-64
2023/05/10 15:06:10;;;;;;;;;;;;;;;18.83;53.46;97679.47;4841282;29;19977;-64
2023/05/10 15:08:35;;;;;;;;;;;;;;;18.71;52.12;97689.59;4840881;29;19916;-63
2023/05/10 15:11:01;;;;;;;;;;;;;;;18.33;52.45;97684.97;4839884;29;19921;-62
2023/05/10 15:13:26;;;;;;;;;;;;;;;18.08;51.90;97689.47;4820725;29;19917;-63
2023/05/10 15:15:51;;;;;;;;;;;;;;;17.81;52.71;97694.06;4840043;29;20022;-61
2023/05/10 15:18:17;;;;;;;;;;;;;;;18.05;52.32;97692.44;4835558;29;19917;-63
2023/05/10 15:20:42;;;;;;;;;;;;;;;17.63;52.77;97691.50;4806111;29;19924;-63
2023/05/10 15:23:07;;;;;;;;;;;;;;;17.43;53.38;97701.56;4823385;29;19917;-63
2023/05/10 15:25:34;;;;;;;;;;;;;;;17.33;53.54;97706.16;4826852;29;19932;-61
2023/05/10 15:27:59;;;;;;;;;;;;;;;17.00;53.90;97699.91;4841211;29;19917;-63
2023/05/10 15:30:25;;;;;;;;;;;;;;;16.72;55.30;97701.84;4841145;29;19924;-62
2023/05/10 15:32:50;;;;;;;;;;;;;;;16.95;55.13;97707.47;4839688;29;19927;-64
2023/05/10 15:35:16;;;;;;;;;;;;;;;16.91;55.30;97706.13;4840971;29;19973;-62
2023/05/10 15:37:41;;;;;;;;;;;;;;;17.00;55.14;97698.06;4840887;29;19928;-62
2023/05/10 15:40:07;;;;;;;;;;;;;;;16.92;55.01;97699.84;4840777;29;19976;-63
2023/05/10 15:42:32;;;;;;;;;;;;;;;16.78;55.51;97701.25;4840557;29;19916;-64
2023/05/10 15:44:57;;;;;;;;;;;;;;;16.95;55.20;97696.88;4840973;29;20298;-64
2023/05/10 15:47:23;;;;;;;;;;;;;;;16.89;54.26;97702.78;4839472;29;19963;-64
2023/05/10 15:49:48;;;;;;;;;;;;;;;17.03;53.68;97715.44;4840920;29;19916;-64
2023/05/10 15:52:13;;;;;;;;;;;;;;;17.14;53.07;97711.72;4840889;29;19920;-64
2023/05/10 15:54:38;;;;;;;;;;;;;;;17.15;52.67;97724.81;4839975;29;19917;-64
2023/05/10 15:57:03;;;;;;;;;;;;;;;16.95;53.36;97718.06;4840857;29;19923;-64
2023/05/10 15:59:29;;;;;;;;;;;;;;;16.79;54.48;97716.13;4840523;29;19932;-63
2023/05/10 16:01:54;;;;;;;;;;;;;;;16.68;55.93;97714.56;4827828;29;19944;-63
2023/05/10 16:04:19;;;;;;;;;;;;;;;16.60;57.10;97733.88;4822725;29;19917;-63
2023/05/10 16:06:45;;;;;;;;;;;;;;;16.42;59.17;97721.66;4822577;29;19977;-65
2023/05/10 16:09:10;;;;;;;;;;;;;;;16.59;59.00;97720.81;4822394;29;20331;-63
2023/05/10 16:11:35;;;;;;;;;;;;;;;16.60;59.62;97722.44;4822938;29;20315;-64
2023/05/10 16:14:00;;;;;;;;;;;;;;;16.57;60.13;97725.41;4840759;29;19977;-64
2023/05/10 16:16:26;;;;;;;;;;;;;;;16.50;60.79;97716.41;4824786;29;19912;-63
2023/05/10 16:18:51;;;;;;;;;;;;;;;16.53;60.73;97719.59;4841068;29;19973;-63
2023/05/10 16:21:16;;;;;;;;;;;;;;;16.53;61.38;97716.13;4840873;29;19917;-63
2023/05/10 16:23:42;;;;;;;;;;;;;;;16.54;61.26;97723.06;4841074;29;20307;-63
2023/05/10 16:26:07;;;;;;;;;;;;;;;16.60;61.03;97725.09;4840836;29;20003;-64
2023/05/10 16:28:32;;;;;;;;;;;;;;;16.51;61.42;97726.84;4841098;29;19917;-64
2023/05/10 16:30:58;;;;;;;;;;;;;;;16.54;61.47;97723.06;4824369;29;20462;-64
2023/05/10 16:33:23;;;;;;;;;;;;;;;16.52;61.02;97727.69;4840937;29;20290;-64
2023/05/10 16:35:48;;;;;;;;;;;;;;;16.51;60.99;97731.31;4840748;29;19916;-63
2023/05/10 16:38:13;;;;;;;;;;;;;;;16.46;60.80;97737.06;4841129;29;19973;-63
2023/05/10 16:40:39;;;;;;;;;;;;;;;16.40;59.63;97734.22;4841193;29;20357;-64
2023/05/10 16:43:04;;;;;;;;;;;;;;;16.20;58.73;97733.53;4840905;29;19917;-63
2023/05/10 16:45:32;;;;;;;;;;;;;;;15.97;60.34;97731.38;4840749;29;19921;-64
2023/05/10 16:47:57;;;;;;;;;;;;;;;16.05;60.37;97733.25;4824567;29;19920;-64
2023/05/10 16:50:22;;;;;;;;;;;;;;;15.78;60.86;97734.13;4840981;29;19923;-63
2023/05/10 16:52:47;;;;;;;;;;;;;;;15.80;60.90;97733.00;4842256;29;19952;-62
2023/05/10 16:55:13;;;;;;;;;;;;;;;15.79;61.66;97736.63;4844253;29;19921;-62
2023/05/10 16:57:38;;;;;;;;;;;;;;;15.78;62.00;97727.03;4844259;29;19916;-65
2023/05/10 17:00:04;;;;;;;;;;;;;;;15.78;62.40;97742.88;4844108;29;20458;-64
2023/05/10 17:02:29;;;;;;;;;;;;;;;15.77;61.85;97738.59;4843977;29;20422;-63
2023/05/10 17:04:55;;;;;;;;;;;;;;;15.73;62.08;97726.66;4844144;29;20022;-62
2023/05/10 17:07:20;;;;;;;;;;;;;;;15.86;62.25;97747.44;4844051;29;20280;-62
2023/05/10 17:09:45;;;;;;;;;;;;;;;15.84;62.03;97750.22;4844024;29;19921;-62
2023/05/10 17:12:10;;;;;;;;;;;;;;;15.80;62.49;97750.69;4843783;29;19920;-63
2023/05/10 17:14:36;;;;;;;;;;;;;;;15.61;62.87;97754.22;4843474;29;19916;-62
2023/05/10 17:17:02;;;;;;;;;;;;;;;15.69;62.46;97756.16;4843799;29;19968;-62
2023/05/10 17:19:27;;;;;;;;;;;;;;;15.56;62.98;97759.16;4843831;29;20295;-62
2023/05/10 17:21:52;;;;;;;;;;;;;;;15.39;63.44;97760.75;4843622;29;19928;-62
2023/05/10 17:24:17;;;;;;;;;;;;;;;15.34;63.99;97769.09;4841321;29;19925;-62
2023/05/10 17:26:43;;;;;;;;;;;;;;;15.43;63.20;97768.25;4833733;29;19921;-62
2023/05/10 17:29:08;;;;;;;;;;;;;;;15.32;64.04;97772.88;4844211;29;19927;-62
2023/05/10 17:31:34;;;;;;;;;;;;;;;15.23;64.38;97771.94;4843475;29;20383;-62
2023/05/10 17:33:59;;;;;;;;;;;;;;;15.29;64.74;97771.38;4842848;29;20401;-62
2023/05/10 17:36:24;;;;;;;;;;;;;;;15.19;64.92;97770.56;4846275;29;19921;-62
2023/05/10 17:38:50;;;;;;;;;;;;;;;15.16;64.86;97773.50;4832863;29;19916;-62
2023/05/10 17:41:15;;;;;;;;;;;;;;;15.06;65.59;97776.16;4808591;29;19916;-62
2023/05/10 17:43:41;;;;;;;;;;;;;;;15.10;66.03;97777.53;4825034;29;20462;-62
2023/05/10 17:46:06;;;;;;;;;;;;;;;15.09;66.01;97777.69;4833231;29;19935;-62
2023/05/10 17:48:31;;;;;;;;;;;;;;;14.98;66.39;97777.88;4841246;29;19917;-62
2023/05/10 17:50:57;;;;;;;;;;;;;;;14.99;66.73;97788.28;4839041;29;20024;-62
2023/05/10 17:53:22;;;;;;;;;;;;;;;14.95;67.08;97790.38;4838543;29;19920;-61
2023/05/10 17:55:48;;;;;;;;;;;;;;;14.94;67.35;97790.53;4842939;29;19916;-62
2023/05/10 17:58:13;;;;;;;;;;;;;;;14.88;67.41;97793.72;4841418;29;19917;-62
2023/05/10 18:00:38;;;;;;;;;;;;;;;14.82;68.01;97800.41;4847060;29;20421;-62
2023/05/10 18:03:04;;;;;;;;;;;;;;;14.77;68.64;97807.09;4840937;29;20387;-62
2023/05/10 18:05:29;;;;;;;;;;;;;;;14.69;69.68;97805.13;4829618;29;19929;-62